sensor_id;sensor_type;location;lat;lon;timestamp;P1;durP1;ratioP1;P2;durP2;ratioP2
68976;SDS011;56029;52.568;13.588;2023-05-07T00:00:18;22.07;;;14.17;;
68976;SDS011;56029;52.568;13.588;2023-05-07T00:03:06;23.45;;;13.82;;
68976;SDS011;56029;52.568;13.588;2023-05-07T00:05:32;25.80;;;14.20;;
68976;SDS011;56029;52.568;13.588;2023-05-07T00:07:57;24.20;;;13.60;;
68976;SDS011;56029;52.568;13.588;2023-05-07T00:10:23;23.97;;;14.33;;
68976;SDS011;56029;52.568;13.588;2023-05-07T00:12:48;23.70;;;14.13;;
68976;SDS011;56029;52.568;13.588;2023-05-07T00:15:14;22.55;;;14.27;;
68976;SDS011;56029;52.568;13.588;2023-05-07T00:17:41;22.87;;;13.93;;
68976;SDS011;56029;52.568;13.588;2023-05-07T00:20:06;22.45;;;13.35;;
68976;SDS011;56029;52.568;13.588;2023-05-07T00:22:32;23.97;;;13.60;;
68976;SDS011;56029;52.568;13.588;2023-05-07T00:24:58;22.92;;;13.70;;
68976;SDS011;56029;52.568;13.588;2023-05-07T00:27:24;22.58;;;14.35;;
68976;SDS011;56029;52.568;13.588;2023-05-07T00:29:50;25.00;;;14.50;;
68976;SDS011;56029;52.568;13.588;2023-05-07T00:32:16;23.85;;;14.50;;
68976;SDS011;56029;52.568;13.588;2023-05-07T00:34:41;23.93;;;13.83;;
68976;SDS011;56029;52.568;13.588;2023-05-07T00:37:07;23.42;;;14.60;;
68976;SDS011;56029;52.568;13.588;2023-05-07T00:39:34;23.88;;;13.88;;
68976;SDS011;56029;52.568;13.588;2023-05-07T00:42:00;22.85;;;14.10;;
68976;SDS011;56029;52.568;13.588;2023-05-07T00:44:25;24.47;;;14.53;;
68976;SDS011;56029;52.568;13.588;2023-05-07T00:46:52;26.20;;;14.20;;
68976;SDS011;56029;52.568;13.588;2023-05-07T00:49:19;25.88;;;13.80;;
68976;SDS011;56029;52.568;13.588;2023-05-07T00:51:45;22.37;;;13.27;;
68976;SDS011;56029;52.568;13.588;2023-05-07T00:54:11;23.15;;;13.88;;
68976;SDS011;56029;52.568;13.588;2023-05-07T00:56:38;23.63;;;13.95;;
68976;SDS011;56029;52.568;13.588;2023-05-07T00:59:05;23.73;;;13.85;;
68976;SDS011;56029;52.568;13.588;2023-05-07T01:01:31;22.23;;;13.65;;
68976;SDS011;56029;52.568;13.588;2023-05-07T01:03:57;24.47;;;14.47;;
68976;SDS011;56029;52.568;13.588;2023-05-07T01:06:23;23.70;;;14.13;;
68976;SDS011;56029;52.568;13.588;2023-05-07T01:08:50;23.10;;;14.07;;
68976;SDS011;56029;52.568;13.588;2023-05-07T01:11:18;22.45;;;13.52;;
68976;SDS011;56029;52.568;13.588;2023-05-07T01:13:45;22.33;;;14.10;;
68976;SDS011;56029;52.568;13.588;2023-05-07T01:16:12;23.08;;;14.10;;
68976;SDS011;56029;52.568;13.588;2023-05-07T01:18:37;21.93;;;13.50;;
68976;SDS011;56029;52.568;13.588;2023-05-07T01:21:04;22.55;;;13.98;;
68976;SDS011;56029;52.568;13.588;2023-05-07T01:23:30;21.70;;;13.43;;
68976;SDS011;56029;52.568;13.588;2023-05-07T01:25:56;22.77;;;13.83;;
68976;SDS011;56029;52.568;13.588;2023-05-07T01:28:21;22.80;;;13.60;;
68976;SDS011;56029;52.568;13.588;2023-05-07T01:30:48;23.05;;;13.27;;
68976;SDS011;56029;52.568;13.588;2023-05-07T01:33:19;22.70;;;13.50;;
68976;SDS011;56029;52.568;13.588;2023-05-07T01:35:48;24.23;;;14.18;;
68976;SDS011;56029;52.568;13.588;2023-05-07T01:38:18;23.13;;;14.05;;
68976;SDS011;56029;52.568;13.588;2023-05-07T01:40:44;23.95;;;13.93;;
68976;SDS011;56029;52.568;13.588;2023-05-07T01:43:10;25.07;;;14.17;;
68976;SDS011;56029;52.568;13.588;2023-05-07T01:45:43;23.02;;;13.93;;
68976;SDS011;56029;52.568;13.588;2023-05-07T01:48:10;22.65;;;14.02;;
68976;SDS011;56029;52.568;13.588;2023-05-07T01:50:37;23.48;;;14.05;;
68976;SDS011;56029;52.568;13.588;2023-05-07T01:53:02;23.20;;;14.10;;
68976;SDS011;56029;52.568;13.588;2023-05-07T01:55:28;25.17;;;13.80;;
68976;SDS011;56029;52.568;13.588;2023-05-07T01:57:54;23.77;;;13.57;;
68976;SDS011;56029;52.568;13.588;2023-05-07T02:00:19;22.98;;;13.63;;
68976;SDS011;56029;52.568;13.588;2023-05-07T02:02:45;20.60;;;12.67;;
68976;SDS011;56029;52.568;13.588;2023-05-07T02:05:11;20.98;;;12.80;;
68976;SDS011;56029;52.568;13.588;2023-05-07T02:07:36;22.03;;;12.93;;
68976;SDS011;56029;52.568;13.588;2023-05-07T02:10:02;20.83;;;12.70;;
68976;SDS011;56029;52.568;13.588;2023-05-07T02:12:28;22.88;;;13.30;;
68976;SDS011;56029;52.568;13.588;2023-05-07T02:14:54;22.88;;;12.73;;
68976;SDS011;56029;52.568;13.588;2023-05-07T02:17:19;21.80;;;12.93;;
68976;SDS011;56029;52.568;13.588;2023-05-07T02:19:45;21.17;;;13.02;;
68976;SDS011;56029;52.568;13.588;2023-05-07T02:22:10;21.23;;;13.03;;
68976;SDS011;56029;52.568;13.588;2023-05-07T02:24:36;19.97;;;12.30;;
68976;SDS011;56029;52.568;13.588;2023-05-07T02:27:01;21.20;;;13.00;;
68976;SDS011;56029;52.568;13.588;2023-05-07T02:29:28;20.57;;;12.67;;
68976;SDS011;56029;52.568;13.588;2023-05-07T02:31:54;20.83;;;12.95;;
68976;SDS011;56029;52.568;13.588;2023-05-07T02:34:20;20.70;;;12.18;;
68976;SDS011;56029;52.568;13.588;2023-05-07T02:36:46;21.40;;;12.45;;
68976;SDS011;56029;52.568;13.588;2023-05-07T02:39:12;22.50;;;12.73;;
68976;SDS011;56029;52.568;13.588;2023-05-07T02:41:38;20.85;;;11.80;;
68976;SDS011;56029;52.568;13.588;2023-05-07T02:44:04;20.20;;;12.02;;
68976;SDS011;56029;52.568;13.588;2023-05-07T02:46:30;20.80;;;12.40;;
68976;SDS011;56029;52.568;13.588;2023-05-07T02:48:56;18.43;;;11.63;;
68976;SDS011;56029;52.568;13.588;2023-05-07T02:51:22;19.00;;;11.63;;
68976;SDS011;56029;52.568;13.588;2023-05-07T02:53:48;20.75;;;11.90;;
68976;SDS011;56029;52.568;13.588;2023-05-07T02:56:13;20.87;;;12.27;;
68976;SDS011;56029;52.568;13.588;2023-05-07T02:58:39;20.05;;;11.70;;
68976;SDS011;56029;52.568;13.588;2023-05-07T03:01:05;21.50;;;12.67;;
68976;SDS011;56029;52.568;13.588;2023-05-07T03:03:31;20.00;;;11.73;;
68976;SDS011;56029;52.568;13.588;2023-05-07T03:05:57;21.50;;;12.40;;
68976;SDS011;56029;52.568;13.588;2023-05-07T03:08:23;20.40;;;12.23;;
68976;SDS011;56029;52.568;13.588;2023-05-07T03:10:49;19.30;;;11.73;;
68976;SDS011;56029;52.568;13.588;2023-05-07T03:13:14;20.80;;;11.97;;
68976;SDS011;56029;52.568;13.588;2023-05-07T03:15:40;18.38;;;11.48;;
68976;SDS011;56029;52.568;13.588;2023-05-07T03:18:06;19.53;;;11.67;;
68976;SDS011;56029;52.568;13.588;2023-05-07T03:20:31;18.43;;;11.27;;
68976;SDS011;56029;52.568;13.588;2023-05-07T03:22:57;20.17;;;11.10;;
68976;SDS011;56029;52.568;13.588;2023-05-07T03:25:22;19.43;;;11.30;;
68976;SDS011;56029;52.568;13.588;2023-05-07T03:27:48;18.17;;;11.40;;
68976;SDS011;56029;52.568;13.588;2023-05-07T03:30:14;18.00;;;11.17;;
68976;SDS011;56029;52.568;13.588;2023-05-07T03:32:39;18.70;;;10.63;;
68976;SDS011;56029;52.568;13.588;2023-05-07T03:35:05;18.13;;;10.60;;
68976;SDS011;56029;52.568;13.588;2023-05-07T03:37:31;16.33;;;10.80;;
68976;SDS011;56029;52.568;13.588;2023-05-07T03:39:56;17.07;;;10.60;;
68976;SDS011;56029;52.568;13.588;2023-05-07T03:42:22;19.73;;;11.35;;
68976;SDS011;56029;52.568;13.588;2023-05-07T03:44:47;18.70;;;10.40;;
68976;SDS011;56029;52.568;13.588;2023-05-07T03:47:13;16.40;;;10.10;;
68976;SDS011;56029;52.568;13.588;2023-05-07T03:49:39;18.77;;;11.00;;
68976;SDS011;56029;52.568;13.588;2023-05-07T03:52:05;18.20;;;10.33;;
68976;SDS011;56029;52.568;13.588;2023-05-07T03:54:31;18.73;;;10.70;;
68976;SDS011;56029;52.568;13.588;2023-05-07T03:56:57;18.23;;;10.60;;
68976;SDS011;56029;52.568;13.588;2023-05-07T03:59:22;18.73;;;10.93;;
68976;SDS011;56029;52.568;13.588;2023-05-07T04:01:48;18.53;;;11.07;;
68976;SDS011;56029;52.568;13.588;2023-05-07T04:04:16;18.75;;;11.05;;
68976;SDS011;56029;52.568;13.588;2023-05-07T04:06:42;17.25;;;10.80;;
68976;SDS011;56029;52.568;13.588;2023-05-07T04:09:07;17.13;;;10.63;;
68976;SDS011;56029;52.568;13.588;2023-05-07T04:11:33;17.02;;;10.40;;
68976;SDS011;56029;52.568;13.588;2023-05-07T04:14:00;17.13;;;10.40;;
68976;SDS011;56029;52.568;13.588;2023-05-07T04:16:26;16.95;;;10.20;;
68976;SDS011;56029;52.568;13.588;2023-05-07T04:18:51;16.93;;;10.10;;
68976;SDS011;56029;52.568;13.588;2023-05-07T04:21:17;15.95;;;9.57;;
68976;SDS011;56029;52.568;13.588;2023-05-07T04:23:44;16.93;;;9.63;;
68976;SDS011;56029;52.568;13.588;2023-05-07T04:26:11;17.35;;;9.80;;
68976;SDS011;56029;52.568;13.588;2023-05-07T04:28:37;17.98;;;10.40;;
68976;SDS011;56029;52.568;13.588;2023-05-07T04:31:04;17.50;;;9.97;;
68976;SDS011;56029;52.568;13.588;2023-05-07T04:33:30;16.88;;;9.98;;
68976;SDS011;56029;52.568;13.588;2023-05-07T04:35:56;18.67;;;9.93;;
68976;SDS011;56029;52.568;13.588;2023-05-07T04:38:21;16.80;;;10.13;;
68976;SDS011;56029;52.568;13.588;2023-05-07T04:40:49;17.02;;;9.88;;
68976;SDS011;56029;52.568;13.588;2023-05-07T04:43:14;15.13;;;9.43;;
68976;SDS011;56029;52.568;13.588;2023-05-07T04:45:41;15.88;;;9.43;;
68976;SDS011;56029;52.568;13.588;2023-05-07T04:48:07;15.63;;;8.90;;
68976;SDS011;56029;52.568;13.588;2023-05-07T04:50:34;15.63;;;9.35;;
68976;SDS011;56029;52.568;13.588;2023-05-07T04:52:59;15.33;;;9.20;;
68976;SDS011;56029;52.568;13.588;2023-05-07T04:55:25;16.92;;;9.13;;
68976;SDS011;56029;52.568;13.588;2023-05-07T04:57:51;16.43;;;9.10;;
68976;SDS011;56029;52.568;13.588;2023-05-07T05:00:17;15.73;;;9.35;;
68976;SDS011;56029;52.568;13.588;2023-05-07T05:02:44;15.88;;;8.63;;
68976;SDS011;56029;52.568;13.588;2023-05-07T05:05:11;15.80;;;9.15;;
68976;SDS011;56029;52.568;13.588;2023-05-07T05:07:36;15.60;;;9.10;;
68976;SDS011;56029;52.568;13.588;2023-05-07T05:10:02;16.67;;;8.35;;
68976;SDS011;56029;52.568;13.588;2023-05-07T05:12:28;14.70;;;8.27;;
68976;SDS011;56029;52.568;13.588;2023-05-07T05:14:55;15.75;;;9.02;;
68976;SDS011;56029;52.568;13.588;2023-05-07T05:17:20;15.90;;;9.10;;
68976;SDS011;56029;52.568;13.588;2023-05-07T05:19:46;17.58;;;9.25;;
68976;SDS011;56029;52.568;13.588;2023-05-07T05:22:12;16.10;;;9.00;;
68976;SDS011;56029;52.568;13.588;2023-05-07T05:24:37;15.43;;;8.60;;
68976;SDS011;56029;52.568;13.588;2023-05-07T05:27:03;15.70;;;9.07;;
68976;SDS011;56029;52.568;13.588;2023-05-07T05:29:29;13.93;;;8.15;;
68976;SDS011;56029;52.568;13.588;2023-05-07T05:31:56;15.10;;;8.53;;
68976;SDS011;56029;52.568;13.588;2023-05-07T05:34:22;16.30;;;9.18;;
68976;SDS011;56029;52.568;13.588;2023-05-07T05:36:47;14.87;;;8.90;;
68976;SDS011;56029;52.568;13.588;2023-05-07T05:39:13;15.77;;;8.95;;
68976;SDS011;56029;52.568;13.588;2023-05-07T05:41:39;15.82;;;9.27;;
68976;SDS011;56029;52.568;13.588;2023-05-07T05:44:05;15.57;;;9.10;;
68976;SDS011;56029;52.568;13.588;2023-05-07T05:46:31;16.50;;;9.02;;
68976;SDS011;56029;52.568;13.588;2023-05-07T05:48:57;16.30;;;9.15;;
68976;SDS011;56029;52.568;13.588;2023-05-07T05:51:22;13.80;;;8.53;;
68976;SDS011;56029;52.568;13.588;2023-05-07T05:53:48;15.05;;;8.65;;
68976;SDS011;56029;52.568;13.588;2023-05-07T05:56:15;14.23;;;8.87;;
68976;SDS011;56029;52.568;13.588;2023-05-07T05:58:41;15.40;;;8.88;;
68976;SDS011;56029;52.568;13.588;2023-05-07T06:01:06;14.83;;;8.93;;
68976;SDS011;56029;52.568;13.588;2023-05-07T06:03:32;15.48;;;8.60;;
68976;SDS011;56029;52.568;13.588;2023-05-07T06:05:58;14.33;;;8.67;;
68976;SDS011;56029;52.568;13.588;2023-05-07T06:08:25;14.55;;;8.52;;
68976;SDS011;56029;52.568;13.588;2023-05-07T06:10:51;14.00;;;8.07;;
68976;SDS011;56029;52.568;13.588;2023-05-07T06:13:17;14.52;;;9.10;;
68976;SDS011;56029;52.568;13.588;2023-05-07T06:15:42;17.17;;;9.70;;
68976;SDS011;56029;52.568;13.588;2023-05-07T06:18:08;14.67;;;8.80;;
68976;SDS011;56029;52.568;13.588;2023-05-07T06:20:33;15.27;;;9.00;;
68976;SDS011;56029;52.568;13.588;2023-05-07T06:22:59;14.75;;;8.70;;
68976;SDS011;56029;52.568;13.588;2023-05-07T06:25:24;15.23;;;8.77;;
68976;SDS011;56029;52.568;13.588;2023-05-07T06:27:50;15.70;;;8.63;;
68976;SDS011;56029;52.568;13.588;2023-05-07T06:30:15;13.90;;;8.30;;
68976;SDS011;56029;52.568;13.588;2023-05-07T06:32:41;13.17;;;8.37;;
68976;SDS011;56029;52.568;13.588;2023-05-07T06:35:06;14.40;;;8.80;;
68976;SDS011;56029;52.568;13.588;2023-05-07T06:37:32;13.70;;;7.95;;
68976;SDS011;56029;52.568;13.588;2023-05-07T06:39:58;13.53;;;8.43;;
68976;SDS011;56029;52.568;13.588;2023-05-07T06:42:23;14.18;;;8.30;;
68976;SDS011;56029;52.568;13.588;2023-05-07T06:44:49;14.10;;;8.90;;
68976;SDS011;56029;52.568;13.588;2023-05-07T06:47:15;13.75;;;8.70;;
68976;SDS011;56029;52.568;13.588;2023-05-07T06:49:40;14.20;;;8.80;;
68976;SDS011;56029;52.568;13.588;2023-05-07T06:52:06;14.70;;;8.52;;
68976;SDS011;56029;52.568;13.588;2023-05-07T06:54:31;13.73;;;8.90;;
68976;SDS011;56029;52.568;13.588;2023-05-07T06:56:57;13.40;;;8.43;;
68976;SDS011;56029;52.568;13.588;2023-05-07T06:59:23;15.03;;;8.83;;
68976;SDS011;56029;52.568;13.588;2023-05-07T07:01:49;14.32;;;8.90;;
68976;SDS011;56029;52.568;13.588;2023-05-07T07:04:14;12.90;;;8.60;;
68976;SDS011;56029;52.568;13.588;2023-05-07T07:06:40;12.95;;;7.72;;
68976;SDS011;56029;52.568;13.588;2023-05-07T07:09:05;14.07;;;8.53;;
68976;SDS011;56029;52.568;13.588;2023-05-07T07:11:31;13.70;;;8.48;;
68976;SDS011;56029;52.568;13.588;2023-05-07T07:13:56;13.10;;;8.30;;
68976;SDS011;56029;52.568;13.588;2023-05-07T07:16:22;13.30;;;8.07;;
68976;SDS011;56029;52.568;13.588;2023-05-07T07:18:48;13.60;;;8.47;;
68976;SDS011;56029;52.568;13.588;2023-05-07T07:21:13;13.53;;;8.50;;
68976;SDS011;56029;52.568;13.588;2023-05-07T07:23:39;12.52;;;7.75;;
68976;SDS011;56029;52.568;13.588;2023-05-07T07:26:04;11.30;;;6.30;;
68976;SDS011;56029;52.568;13.588;2023-05-07T07:28:31;10.98;;;6.70;;
68976;SDS011;56029;52.568;13.588;2023-05-07T07:30:57;10.23;;;6.40;;
68976;SDS011;56029;52.568;13.588;2023-05-07T07:33:22;12.93;;;6.88;;
68976;SDS011;56029;52.568;13.588;2023-05-07T07:35:48;10.63;;;6.57;;
68976;SDS011;56029;52.568;13.588;2023-05-07T07:38:13;12.00;;;7.03;;
68976;SDS011;56029;52.568;13.588;2023-05-07T07:40:39;9.55;;;5.78;;
68976;SDS011;56029;52.568;13.588;2023-05-07T07:43:04;10.67;;;6.03;;
68976;SDS011;56029;52.568;13.588;2023-05-07T07:45:31;9.88;;;5.93;;
68976;SDS011;56029;52.568;13.588;2023-05-07T07:47:56;10.50;;;6.00;;
68976;SDS011;56029;52.568;13.588;2023-05-07T07:50:22;8.98;;;5.18;;
68976;SDS011;56029;52.568;13.588;2023-05-07T07:52:48;10.00;;;5.60;;
68976;SDS011;56029;52.568;13.588;2023-05-07T07:55:14;9.35;;;5.82;;
68976;SDS011;56029;52.568;13.588;2023-05-07T07:57:43;9.20;;;4.80;;
68976;SDS011;56029;52.568;13.588;2023-05-07T08:00:08;9.07;;;5.10;;
68976;SDS011;56029;52.568;13.588;2023-05-07T08:02:34;9.55;;;5.05;;
68976;SDS011;56029;52.568;13.588;2023-05-07T08:05:00;8.27;;;4.60;;
68976;SDS011;56029;52.568;13.588;2023-05-07T08:07:25;7.47;;;4.60;;
68976;SDS011;56029;52.568;13.588;2023-05-07T08:09:51;8.27;;;4.60;;
68976;SDS011;56029;52.568;13.588;2023-05-07T08:12:16;7.20;;;4.43;;
68976;SDS011;56029;52.568;13.588;2023-05-07T08:14:42;7.43;;;4.30;;
68976;SDS011;56029;52.568;13.588;2023-05-07T08:17:08;8.02;;;4.80;;
68976;SDS011;56029;52.568;13.588;2023-05-07T08:19:35;8.23;;;4.90;;
68976;SDS011;56029;52.568;13.588;2023-05-07T08:22:02;9.10;;;4.77;;
68976;SDS011;56029;52.568;13.588;2023-05-07T08:24:28;8.13;;;4.57;;
68976;SDS011;56029;52.568;13.588;2023-05-07T08:26:53;7.35;;;4.35;;
68976;SDS011;56029;52.568;13.588;2023-05-07T08:29:19;8.77;;;4.77;;
68976;SDS011;56029;52.568;13.588;2023-05-07T08:31:45;7.60;;;4.53;;
68976;SDS011;56029;52.568;13.588;2023-05-07T08:34:10;7.27;;;4.27;;
68976;SDS011;56029;52.568;13.588;2023-05-07T08:36:36;8.63;;;4.23;;
68976;SDS011;56029;52.568;13.588;2023-05-07T08:39:01;7.65;;;4.00;;
68976;SDS011;56029;52.568;13.588;2023-05-07T08:41:27;6.63;;;4.00;;
68976;SDS011;56029;52.568;13.588;2023-05-07T08:43:53;6.47;;;3.80;;
68976;SDS011;56029;52.568;13.588;2023-05-07T08:46:24;6.90;;;4.00;;
68976;SDS011;56029;52.568;13.588;2023-05-07T08:48:51;6.95;;;3.80;;
68976;SDS011;56029;52.568;13.588;2023-05-07T08:51:26;7.32;;;4.00;;
68976;SDS011;56029;52.568;13.588;2023-05-07T08:53:54;7.18;;;4.45;;
68976;SDS011;56029;52.568;13.588;2023-05-07T08:56:20;7.63;;;3.90;;
68976;SDS011;56029;52.568;13.588;2023-05-07T08:58:46;7.60;;;3.97;;
68976;SDS011;56029;52.568;13.588;2023-05-07T09:01:15;6.90;;;3.97;;
68976;SDS011;56029;52.568;13.588;2023-05-07T09:03:41;7.28;;;4.00;;
68976;SDS011;56029;52.568;13.588;2023-05-07T09:06:10;7.90;;;4.20;;
68976;SDS011;56029;52.568;13.588;2023-05-07T09:08:35;6.83;;;3.80;;
68976;SDS011;56029;52.568;13.588;2023-05-07T09:11:01;6.60;;;3.80;;
68976;SDS011;56029;52.568;13.588;2023-05-07T09:13:27;7.65;;;4.00;;
68976;SDS011;56029;52.568;13.588;2023-05-07T09:15:53;5.90;;;3.83;;
68976;SDS011;56029;52.568;13.588;2023-05-07T09:18:18;7.40;;;4.13;;
68976;SDS011;56029;52.568;13.588;2023-05-07T09:20:44;7.37;;;4.40;;
68976;SDS011;56029;52.568;13.588;2023-05-07T09:23:10;7.00;;;3.97;;
68976;SDS011;56029;52.568;13.588;2023-05-07T09:25:36;5.90;;;3.65;;
68976;SDS011;56029;52.568;13.588;2023-05-07T09:28:02;5.45;;;3.42;;
68976;SDS011;56029;52.568;13.588;2023-05-07T09:30:33;5.83;;;3.53;;
68976;SDS011;56029;52.568;13.588;2023-05-07T09:32:59;6.03;;;3.78;;
68976;SDS011;56029;52.568;13.588;2023-05-07T09:35:26;5.70;;;3.50;;
68976;SDS011;56029;52.568;13.588;2023-05-07T09:37:57;7.80;;;3.50;;
68976;SDS011;56029;52.568;13.588;2023-05-07T09:40:24;6.70;;;3.47;;
68976;SDS011;56029;52.568;13.588;2023-05-07T09:42:51;6.30;;;3.50;;
68976;SDS011;56029;52.568;13.588;2023-05-07T09:45:27;5.72;;;3.60;;
68976;SDS011;56029;52.568;13.588;2023-05-07T09:47:56;6.35;;;3.55;;
68976;SDS011;56029;52.568;13.588;2023-05-07T09:50:27;5.72;;;3.47;;
68976;SDS011;56029;52.568;13.588;2023-05-07T09:52:54;6.90;;;3.33;;
68976;SDS011;56029;52.568;13.588;2023-05-07T09:55:21;6.90;;;3.17;;
68976;SDS011;56029;52.568;13.588;2023-05-07T09:57:49;5.95;;;3.40;;
68976;SDS011;56029;52.568;13.588;2023-05-07T10:00:16;5.20;;;3.28;;
68976;SDS011;56029;52.568;13.588;2023-05-07T10:02:43;5.63;;;3.30;;
68976;SDS011;56029;52.568;13.588;2023-05-07T10:05:14;5.38;;;3.10;;
68976;SDS011;56029;52.568;13.588;2023-05-07T10:07:40;4.90;;;3.10;;
68976;SDS011;56029;52.568;13.588;2023-05-07T10:10:06;5.97;;;3.08;;
68976;SDS011;56029;52.568;13.588;2023-05-07T10:12:32;4.75;;;2.95;;
68976;SDS011;56029;52.568;13.588;2023-05-07T10:15:07;5.15;;;3.20;;
68976;SDS011;56029;52.568;13.588;2023-05-07T10:17:35;5.57;;;3.00;;
68976;SDS011;56029;52.568;13.588;2023-05-07T10:20:02;4.20;;;2.65;;
68976;SDS011;56029;52.568;13.588;2023-05-07T10:22:30;5.55;;;3.28;;
68976;SDS011;56029;52.568;13.588;2023-05-07T10:25:02;5.13;;;2.72;;
68976;SDS011;56029;52.568;13.588;2023-05-07T10:27:31;5.00;;;3.20;;
68976;SDS011;56029;52.568;13.588;2023-05-07T10:32:42;5.50;;;2.90;;
68976;SDS011;56029;52.568;13.588;2023-05-07T10:35:16;4.72;;;2.95;;
68976;SDS011;56029;52.568;13.588;2023-05-07T10:37:45;5.05;;;3.25;;
68976;SDS011;56029;52.568;13.588;2023-05-07T10:40:12;6.07;;;3.03;;
68976;SDS011;56029;52.568;13.588;2023-05-07T10:42:38;4.87;;;2.80;;
68976;SDS011;56029;52.568;13.588;2023-05-07T10:45:13;5.40;;;3.15;;
68976;SDS011;56029;52.568;13.588;2023-05-07T10:50:44;4.97;;;2.40;;
68976;SDS011;56029;52.568;13.588;2023-05-07T10:55:54;4.10;;;2.40;;
68976;SDS011;56029;52.568;13.588;2023-05-07T10:58:46;4.07;;;2.40;;
68976;SDS011;56029;52.568;13.588;2023-05-07T11:01:12;4.50;;;2.40;;
68976;SDS011;56029;52.568;13.588;2023-05-07T11:06:38;5.82;;;3.00;;
68976;SDS011;56029;52.568;13.588;2023-05-07T11:09:03;4.97;;;2.50;;
68976;SDS011;56029;52.568;13.588;2023-05-07T11:11:44;5.43;;;2.65;;
68976;SDS011;56029;52.568;13.588;2023-05-07T11:14:11;4.87;;;2.87;;
68976;SDS011;56029;52.568;13.588;2023-05-07T11:16:36;5.25;;;2.70;;
68976;SDS011;56029;52.568;13.588;2023-05-07T11:19:03;4.30;;;2.50;;
68976;SDS011;56029;52.568;13.588;2023-05-07T11:24:05;4.33;;;2.33;;
68976;SDS011;56029;52.568;13.588;2023-05-07T11:26:48;4.43;;;2.60;;
68976;SDS011;56029;52.568;13.588;2023-05-07T11:29:18;5.93;;;2.70;;
68976;SDS011;56029;52.568;13.588;2023-05-07T11:31:54;3.80;;;2.50;;
68976;SDS011;56029;52.568;13.588;2023-05-07T11:34:21;3.45;;;2.45;;
68976;SDS011;56029;52.568;13.588;2023-05-07T11:36:48;5.07;;;2.70;;
68976;SDS011;56029;52.568;13.588;2023-05-07T11:39:23;4.18;;;2.50;;
68976;SDS011;56029;52.568;13.588;2023-05-07T11:41:53;3.83;;;2.40;;
68976;SDS011;56029;52.568;13.588;2023-05-07T11:44:18;3.83;;;2.50;;
68976;SDS011;56029;52.568;13.588;2023-05-07T11:46:44;3.73;;;2.23;;
68976;SDS011;56029;52.568;13.588;2023-05-07T11:49:10;4.03;;;2.30;;
68976;SDS011;56029;52.568;13.588;2023-05-07T11:51:36;4.38;;;2.75;;
68976;SDS011;56029;52.568;13.588;2023-05-07T11:54:03;4.37;;;2.70;;
68976;SDS011;56029;52.568;13.588;2023-05-07T11:56:33;4.40;;;2.50;;
68976;SDS011;56029;52.568;13.588;2023-05-07T11:58:59;5.18;;;2.63;;
68976;SDS011;56029;52.568;13.588;2023-05-07T12:01:25;5.33;;;2.90;;
68976;SDS011;56029;52.568;13.588;2023-05-07T12:03:50;4.03;;;2.40;;
68976;SDS011;56029;52.568;13.588;2023-05-07T12:06:16;3.67;;;2.37;;
68976;SDS011;56029;52.568;13.588;2023-05-07T12:08:42;4.47;;;2.50;;
68976;SDS011;56029;52.568;13.588;2023-05-07T12:11:16;5.35;;;3.00;;
68976;SDS011;56029;52.568;13.588;2023-05-07T12:13:46;4.97;;;2.80;;
68976;SDS011;56029;52.568;13.588;2023-05-07T12:16:12;4.75;;;2.80;;
68976;SDS011;56029;52.568;13.588;2023-05-07T12:18:37;5.00;;;2.80;;
68976;SDS011;56029;52.568;13.588;2023-05-07T12:21:04;4.90;;;2.53;;
68976;SDS011;56029;52.568;13.588;2023-05-07T12:23:31;3.65;;;2.45;;
68976;SDS011;56029;52.568;13.588;2023-05-07T12:25:57;6.33;;;3.40;;
68976;SDS011;56029;52.568;13.588;2023-05-07T12:28:22;5.25;;;3.05;;
68976;SDS011;56029;52.568;13.588;2023-05-07T12:30:48;4.30;;;2.30;;
68976;SDS011;56029;52.568;13.588;2023-05-07T12:33:16;3.90;;;2.30;;
68976;SDS011;56029;52.568;13.588;2023-05-07T12:35:48;4.78;;;2.70;;
68976;SDS011;56029;52.568;13.588;2023-05-07T12:38:15;5.03;;;2.58;;
68976;SDS011;56029;52.568;13.588;2023-05-07T12:40:46;5.43;;;3.20;;
68976;SDS011;56029;52.568;13.588;2023-05-07T12:43:19;5.40;;;2.75;;
68976;SDS011;56029;52.568;13.588;2023-05-07T12:45:49;5.60;;;2.90;;
68976;SDS011;56029;52.568;13.588;2023-05-07T12:48:16;4.03;;;2.50;;
68976;SDS011;56029;52.568;13.588;2023-05-07T12:50:41;3.50;;;2.30;;
68976;SDS011;56029;52.568;13.588;2023-05-07T12:53:11;4.60;;;2.40;;
68976;SDS011;56029;52.568;13.588;2023-05-07T12:55:41;3.90;;;2.50;;
68976;SDS011;56029;52.568;13.588;2023-05-07T12:58:06;4.38;;;2.30;;
68976;SDS011;56029;52.568;13.588;2023-05-07T13:00:36;5.43;;;2.70;;
68976;SDS011;56029;52.568;13.588;2023-05-07T13:03:02;4.70;;;2.40;;
68976;SDS011;56029;52.568;13.588;2023-05-07T13:05:28;5.53;;;2.70;;
68976;SDS011;56029;52.568;13.588;2023-05-07T13:07:54;5.43;;;2.90;;
68976;SDS011;56029;52.568;13.588;2023-05-07T13:10:21;4.60;;;2.63;;
68976;SDS011;56029;52.568;13.588;2023-05-07T13:12:48;4.47;;;2.88;;
68976;SDS011;56029;52.568;13.588;2023-05-07T13:15:14;4.17;;;2.57;;
68976;SDS011;56029;52.568;13.588;2023-05-07T13:17:39;4.05;;;2.53;;
68976;SDS011;56029;52.568;13.588;2023-05-07T13:20:05;6.30;;;3.20;;
68976;SDS011;56029;52.568;13.588;2023-05-07T13:22:32;4.82;;;2.60;;
68976;SDS011;56029;52.568;13.588;2023-05-07T13:24:58;5.73;;;2.63;;
68976;SDS011;56029;52.568;13.588;2023-05-07T13:27:23;3.63;;;2.13;;
68976;SDS011;56029;52.568;13.588;2023-05-07T13:29:49;4.23;;;2.30;;
68976;SDS011;56029;52.568;13.588;2023-05-07T13:32:15;5.25;;;2.63;;
68976;SDS011;56029;52.568;13.588;2023-05-07T13:34:41;6.17;;;2.60;;
68976;SDS011;56029;52.568;13.588;2023-05-07T13:37:06;4.93;;;2.60;;
68976;SDS011;56029;52.568;13.588;2023-05-07T13:39:33;5.68;;;2.50;;
68976;SDS011;56029;52.568;13.588;2023-05-07T13:41:58;4.03;;;2.55;;
68976;SDS011;56029;52.568;13.588;2023-05-07T13:44:24;3.43;;;2.50;;
68976;SDS011;56029;52.568;13.588;2023-05-07T13:46:49;4.03;;;2.70;;
68976;SDS011;56029;52.568;13.588;2023-05-07T13:49:15;4.70;;;2.30;;
68976;SDS011;56029;52.568;13.588;2023-05-07T13:51:40;3.90;;;2.33;;
68976;SDS011;56029;52.568;13.588;2023-05-07T13:54:06;4.65;;;2.90;;
68976;SDS011;56029;52.568;13.588;2023-05-07T13:56:32;4.17;;;2.20;;
68976;SDS011;56029;52.568;13.588;2023-05-07T13:58:58;4.57;;;2.65;;
68976;SDS011;56029;52.568;13.588;2023-05-07T14:01:23;4.27;;;2.47;;
68976;SDS011;56029;52.568;13.588;2023-05-07T14:03:49;4.22;;;2.35;;
68976;SDS011;56029;52.568;13.588;2023-05-07T14:06:14;4.03;;;2.60;;
68976;SDS011;56029;52.568;13.588;2023-05-07T14:08:40;4.77;;;2.20;;
68976;SDS011;56029;52.568;13.588;2023-05-07T14:11:05;3.85;;;2.30;;
68976;SDS011;56029;52.568;13.588;2023-05-07T14:13:31;3.80;;;2.20;;
68976;SDS011;56029;52.568;13.588;2023-05-07T14:15:58;4.82;;;2.30;;
68976;SDS011;56029;52.568;13.588;2023-05-07T14:18:23;3.00;;;2.17;;
68976;SDS011;56029;52.568;13.588;2023-05-07T14:20:49;4.78;;;2.20;;
68976;SDS011;56029;52.568;13.588;2023-05-07T14:23:15;3.47;;;2.20;;
68976;SDS011;56029;52.568;13.588;2023-05-07T14:25:42;3.45;;;2.20;;
68976;SDS011;56029;52.568;13.588;2023-05-07T14:28:08;4.25;;;2.33;;
68976;SDS011;56029;52.568;13.588;2023-05-07T14:30:34;2.50;;;1.90;;
68976;SDS011;56029;52.568;13.588;2023-05-07T14:33:00;2.67;;;1.85;;